sensor_id;sensor_type;location;lat;lon;timestamp;temperature;humidity
21306;DHT22;10812;51.838;5.838;2023-02-01T00:00:13;4.40;99.90
21306;DHT22;10812;51.838;5.838;2023-02-01T00:02:41;4.50;99.90
21306;DHT22;10812;51.838;5.838;2023-02-01T00:05:10;4.50;99.90
21306;DHT22;10812;51.838;5.838;2023-02-01T00:07:38;4.70;99.90
21306;DHT22;10812;51.838;5.838;2023-02-01T00:10:08;4.70;99.90
21306;DHT22;10812;51.838;5.838;2023-02-01T00:12:36;4.80;99.90
21306;DHT22;10812;51.838;5.838;2023-02-01T00:15:05;4.80;99.90
21306;DHT22;10812;51.838;5.838;2023-02-01T00:17:34;4.90;99.90
21306;DHT22;10812;51.838;5.838;2023-02-01T00:20:03;4.90;99.90
21306;DHT22;10812;51.838;5.838;2023-02-01T00:22:31;4.90;99.90
21306;DHT22;10812;51.838;5.838;2023-02-01T00:24:59;5.00;99.90
21306;DHT22;10812;51.838;5.838;2023-02-01T00:27:28;5.10;99.90
21306;DHT22;10812;51.838;5.838;2023-02-01T00:29:56;5.10;99.90
21306;DHT22;10812;51.838;5.838;2023-02-01T00:32:24;5.10;99.90
21306;DHT22;10812;51.838;5.838;2023-02-01T00:34:53;5.10;99.90
21306;DHT22;10812;51.838;5.838;2023-02-01T00:37:21;5.10;99.90
21306;DHT22;10812;51.838;5.838;2023-02-01T00:39:49;5.20;99.90
21306;DHT22;10812;51.838;5.838;2023-02-01T00:42:18;5.20;99.90
21306;DHT22;10812;51.838;5.838;2023-02-01T00:44:46;5.20;99.90
21306;DHT22;10812;51.838;5.838;2023-02-01T00:47:14;5.20;99.90
21306;DHT22;10812;51.838;5.838;2023-02-01T00:49:42;5.30;99.90
21306;DHT22;10812;51.838;5.838;2023-02-01T00:52:11;5.30;99.90
21306;DHT22;10812;51.838;5.838;2023-02-01T00:54:39;5.30;99.90
21306;DHT22;10812;51.838;5.838;2023-02-01T00:57:07;5.30;99.90
21306;DHT22;10812;51.838;5.838;2023-02-01T00:59:35;5.30;99.90
21306;DHT22;10812;51.838;5.838;2023-02-01T01:02:04;5.30;99.90
21306;DHT22;10812;51.838;5.838;2023-02-01T01:04:32;5.30;99.90
21306;DHT22;10812;51.838;5.838;2023-02-01T01:07:00;5.30;99.90
21306;DHT22;10812;51.838;5.838;2023-02-01T01:09:29;5.30;99.90
21306;DHT22;10812;51.838;5.838;2023-02-01T01:11:57;5.30;99.90
21306;DHT22;10812;51.838;5.838;2023-02-01T01:14:32;5.30;99.90
21306;DHT22;10812;51.838;5.838;2023-02-01T01:17:00;5.30;99.90
21306;DHT22;10812;51.838;5.838;2023-02-01T01:19:28;5.30;99.90
21306;DHT22;10812;51.838;5.838;2023-02-01T01:21:56;5.20;99.90
21306;DHT22;10812;51.838;5.838;2023-02-01T01:24:26;5.10;99.90
21306;DHT22;10812;51.838;5.838;2023-02-01T01:26:56;5.00;99.90
21306;DHT22;10812;51.838;5.838;2023-02-01T01:29:27;5.00;99.90
21306;DHT22;10812;51.838;5.838;2023-02-01T01:31:55;4.90;99.90
21306;DHT22;10812;51.838;5.838;2023-02-01T01:34:23;4.90;99.90
21306;DHT22;10812;51.838;5.838;2023-02-01T01:36:51;4.80;99.90
21306;DHT22;10812;51.838;5.838;2023-02-01T01:39:19;4.80;99.90
21306;DHT22;10812;51.838;5.838;2023-02-01T01:41:47;4.70;99.90
21306;DHT22;10812;51.838;5.838;2023-02-01T01:47:22;4.70;99.90
21306;DHT22;10812;51.838;5.838;2023-02-01T01:49:51;4.70;99.90
21306;DHT22;10812;51.838;5.838;2023-02-01T01:52:19;4.60;99.90
21306;DHT22;10812;51.838;5.838;2023-02-01T01:54:49;4.70;99.90
21306;DHT22;10812;51.838;5.838;2023-02-01T01:57:21;4.60;99.90
21306;DHT22;10812;51.838;5.838;2023-02-01T01:59:57;4.60;99.90
21306;DHT22;10812;51.838;5.838;2023-02-01T02:02:28;4.60;99.90
21306;DHT22;10812;51.838;5.838;2023-02-01T02:04:57;4.60;99.90
21306;DHT22;10812;51.838;5.838;2023-02-01T02:07:27;4.50;99.90
21306;DHT22;10812;51.838;5.838;2023-02-01T02:09:56;4.50;99.90
21306;DHT22;10812;51.838;5.838;2023-02-01T02:12:27;4.50;99.90
21306;DHT22;10812;51.838;5.838;2023-02-01T02:14:55;4.50;99.90
21306;DHT22;10812;51.838;5.838;2023-02-01T02:17:33;4.50;99.90
21306;DHT22;10812;51.838;5.838;2023-02-01T02:20:30;4.40;99.90
21306;DHT22;10812;51.838;5.838;2023-02-01T02:23:30;4.40;99.90
21306;DHT22;10812;51.838;5.838;2023-02-01T02:26:20;4.40;99.90
21306;DHT22;10812;51.838;5.838;2023-02-01T02:29:37;4.40;99.90
21306;DHT22;10812;51.838;5.838;2023-02-01T02:35:30;4.40;99.90
21306;DHT22;10812;51.838;5.838;2023-02-01T02:38:05;4.30;99.90
21306;DHT22;10812;51.838;5.838;2023-02-01T02:40:46;4.30;99.90
21306;DHT22;10812;51.838;5.838;2023-02-01T02:43:21;4.40;99.90
21306;DHT22;10812;51.838;5.838;2023-02-01T02:46:14;4.50;99.90
21306;DHT22;10812;51.838;5.838;2023-02-01T02:49:05;4.60;99.90
21306;DHT22;10812;51.838;5.838;2023-02-01T02:51:43;4.70;99.90
21306;DHT22;10812;51.838;5.838;2023-02-01T02:54:33;4.90;99.90
21306;DHT22;10812;51.838;5.838;2023-02-01T02:57:18;4.90;99.90
21306;DHT22;10812;51.838;5.838;2023-02-01T03:08:22;5.20;99.90
21306;DHT22;10812;51.838;5.838;2023-02-01T03:10:56;5.20;99.90
21306;DHT22;10812;51.838;5.838;2023-02-01T03:13:30;5.30;99.90
21306;DHT22;10812;51.838;5.838;2023-02-01T03:16:05;5.40;99.90
21306;DHT22;10812;51.838;5.838;2023-02-01T03:18:41;5.40;99.90
21306;DHT22;10812;51.838;5.838;2023-02-01T03:21:14;5.40;99.90
21306;DHT22;10812;51.838;5.838;2023-02-01T03:23:46;5.30;99.90
21306;DHT22;10812;51.838;5.838;2023-02-01T03:26:17;5.40;99.90
21306;DHT22;10812;51.838;5.838;2023-02-01T03:28:53;5.40;99.90
21306;DHT22;10812;51.838;5.838;2023-02-01T03:31:23;5.30;99.90
21306;DHT22;10812;51.838;5.838;2023-02-01T03:33:52;5.30;99.90
21306;DHT22;10812;51.838;5.838;2023-02-01T03:36:25;5.30;99.90
21306;DHT22;10812;51.838;5.838;2023-02-01T03:39:01;5.20;99.90
21306;DHT22;10812;51.838;5.838;2023-02-01T03:41:35;5.30;99.90
21306;DHT22;10812;51.838;5.838;2023-02-01T03:44:12;5.20;99.90
21306;DHT22;10812;51.838;5.838;2023-02-01T03:46:45;5.20;99.90
21306;DHT22;10812;51.838;5.838;2023-02-01T03:49:19;5.20;99.90
21306;DHT22;10812;51.838;5.838;2023-02-01T03:51:50;5.10;99.90
21306;DHT22;10812;51.838;5.838;2023-02-01T03:54:20;5.10;99.90
21306;DHT22;10812;51.838;5.838;2023-02-01T03:56:50;5.00;99.90
21306;DHT22;10812;51.838;5.838;2023-02-01T03:59:20;5.10;99.90
21306;DHT22;10812;51.838;5.838;2023-02-01T04:01:48;5.10;99.90
21306;DHT22;10812;51.838;5.838;2023-02-01T04:04:16;5.20;99.90
21306;DHT22;10812;51.838;5.838;2023-02-01T04:06:48;5.10;99.90
21306;DHT22;10812;51.838;5.838;2023-02-01T04:09:16;5.10;99.90
21306;DHT22;10812;51.838;5.838;2023-02-01T04:11:46;5.00;99.90
21306;DHT22;10812;51.838;5.838;2023-02-01T04:14:14;5.00;99.90
21306;DHT22;10812;51.838;5.838;2023-02-01T04:16:42;4.90;99.90
21306;DHT22;10812;51.838;5.838;2023-02-01T04:19:11;4.90;99.90
21306;DHT22;10812;51.838;5.838;2023-02-01T04:21:39;4.80;99.90
21306;DHT22;10812;51.838;5.838;2023-02-01T04:24:07;4.80;99.90
21306;DHT22;10812;51.838;5.838;2023-02-01T04:26:35;4.70;99.90
21306;DHT22;10812;51.838;5.838;2023-02-01T04:29:05;4.70;99.90
21306;DHT22;10812;51.838;5.838;2023-02-01T04:31:34;4.70;99.90
21306;DHT22;10812;51.838;5.838;2023-02-01T04:34:03;4.70;99.90
21306;DHT22;10812;51.838;5.838;2023-02-01T04:36:31;4.80;99.90
21306;DHT22;10812;51.838;5.838;2023-02-01T04:38:59;4.70;99.90
21306;DHT22;10812;51.838;5.838;2023-02-01T04:41:27;4.80;99.90
21306;DHT22;10812;51.838;5.838;2023-02-01T04:43:56;4.90;99.90
21306;DHT22;10812;51.838;5.838;2023-02-01T04:46:26;4.90;99.90
21306;DHT22;10812;51.838;5.838;2023-02-01T04:48:54;5.00;99.90
21306;DHT22;10812;51.838;5.838;2023-02-01T04:51:22;5.00;99.90
21306;DHT22;10812;51.838;5.838;2023-02-01T04:53:50;5.20;99.90
21306;DHT22;10812;51.838;5.838;2023-02-01T04:56:19;5.20;99.90
21306;DHT22;10812;51.838;5.838;2023-02-01T04:58:47;5.20;99.90
21306;DHT22;10812;51.838;5.838;2023-02-01T05:01:15;5.20;99.90
21306;DHT22;10812;51.838;5.838;2023-02-01T05:03:44;5.30;99.90
21306;DHT22;10812;51.838;5.838;2023-02-01T05:06:12;5.30;99.90
21306;DHT22;10812;51.838;5.838;2023-02-01T05:08:40;5.30;99.90
21306;DHT22;10812;51.838;5.838;2023-02-01T05:11:09;5.30;99.90
21306;DHT22;10812;51.838;5.838;2023-02-01T05:13:57;5.40;99.90
21306;DHT22;10812;51.838;5.838;2023-02-01T05:16:25;5.40;99.90
21306;DHT22;10812;51.838;5.838;2023-02-01T05:18:54;5.40;99.90
21306;DHT22;10812;51.838;5.838;2023-02-01T05:21:22;5.40;99.90
21306;DHT22;10812;51.838;5.838;2023-02-01T05:23:51;5.50;99.90
21306;DHT22;10812;51.838;5.838;2023-02-01T05:26:39;5.50;99.90
21306;DHT22;10812;51.838;5.838;2023-02-01T05:29:09;5.50;99.90
21306;DHT22;10812;51.838;5.838;2023-02-01T05:31:37;5.50;99.90
21306;DHT22;10812;51.838;5.838;2023-02-01T05:34:07;5.50;99.90
21306;DHT22;10812;51.838;5.838;2023-02-01T05:36:35;5.60;99.90
21306;DHT22;10812;51.838;5.838;2023-02-01T05:39:03;5.60;99.90
21306;DHT22;10812;51.838;5.838;2023-02-01T05:41:31;5.60;99.90
21306;DHT22;10812;51.838;5.838;2023-02-01T05:44:00;5.60;99.90
21306;DHT22;10812;51.838;5.838;2023-02-01T05:46:28;5.60;99.90
21306;DHT22;10812;51.838;5.838;2023-02-01T05:56:29;5.80;99.90
21306;DHT22;10812;51.838;5.838;2023-02-01T05:58:57;5.80;99.90
21306;DHT22;10812;51.838;5.838;2023-02-01T06:01:25;5.80;99.90
21306;DHT22;10812;51.838;5.838;2023-02-01T06:03:53;5.70;99.90
21306;DHT22;10812;51.838;5.838;2023-02-01T06:06:22;5.70;99.90
21306;DHT22;10812;51.838;5.838;2023-02-01T06:08:50;5.80;99.90
21306;DHT22;10812;51.838;5.838;2023-02-01T06:11:18;5.70;99.90
21306;DHT22;10812;51.838;5.838;2023-02-01T06:13:59;5.70;99.90
21306;DHT22;10812;51.838;5.838;2023-02-01T06:16:27;5.80;99.90
21306;DHT22;10812;51.838;5.838;2023-02-01T06:18:55;5.80;99.90
21306;DHT22;10812;51.838;5.838;2023-02-01T06:21:25;5.80;99.90
21306;DHT22;10812;51.838;5.838;2023-02-01T06:23:53;5.80;99.90
21306;DHT22;10812;51.838;5.838;2023-02-01T06:26:24;5.80;99.90
21306;DHT22;10812;51.838;5.838;2023-02-01T06:28:52;5.70;99.90
21306;DHT22;10812;51.838;5.838;2023-02-01T06:31:23;5.80;99.90
21306;DHT22;10812;51.838;5.838;2023-02-01T06:33:52;5.80;99.90
21306;DHT22;10812;51.838;5.838;2023-02-01T06:36:20;5.80;99.90
21306;DHT22;10812;51.838;5.838;2023-02-01T06:38:48;5.90;99.90
21306;DHT22;10812;51.838;5.838;2023-02-01T06:41:16;6.00;99.90
21306;DHT22;10812;51.838;5.838;2023-02-01T06:43:47;6.00;99.90
21306;DHT22;10812;51.838;5.838;2023-02-01T06:46:15;6.00;99.90
21306;DHT22;10812;51.838;5.838;2023-02-01T06:48:45;6.00;99.90
21306;DHT22;10812;51.838;5.838;2023-02-01T06:51:21;6.00;99.90
21306;DHT22;10812;51.838;5.838;2023-02-01T06:53:50;6.10;99.90
21306;DHT22;10812;51.838;5.838;2023-02-01T06:56:19;6.10;99.90
21306;DHT22;10812;51.838;5.838;2023-02-01T06:58:47;6.00;99.90
21306;DHT22;10812;51.838;5.838;2023-02-01T07:01:16;6.00;99.90
21306;DHT22;10812;51.838;5.838;2023-02-01T07:03:49;6.00;99.90
21306;DHT22;10812;51.838;5.838;2023-02-01T07:06:18;6.00;99.90
21306;DHT22;10812;51.838;5.838;2023-02-01T07:08:47;6.00;99.90
21306;DHT22;10812;51.838;5.838;2023-02-01T07:11:15;6.00;99.90
21306;DHT22;10812;51.838;5.838;2023-02-01T07:13:44;6.10;99.90
21306;DHT22;10812;51.838;5.838;2023-02-01T07:16:14;6.20;99.90
21306;DHT22;10812;51.838;5.838;2023-02-01T07:18:43;6.10;99.90
21306;DHT22;10812;51.838;5.838;2023-02-01T07:21:13;6.10;99.90
21306;DHT22;10812;51.838;5.838;2023-02-01T07:23:41;6.10;99.90
21306;DHT22;10812;51.838;5.838;2023-02-01T07:26:11;6.10;99.90
21306;DHT22;10812;51.838;5.838;2023-02-01T07:28:40;6.20;99.90
21306;DHT22;10812;51.838;5.838;2023-02-01T07:31:10;6.10;99.90
21306;DHT22;10812;51.838;5.838;2023-02-01T07:33:38;6.10;99.90
21306;DHT22;10812;51.838;5.838;2023-02-01T07:36:10;6.10;99.90
21306;DHT22;10812;51.838;5.838;2023-02-01T07:38:40;6.10;99.90
21306;DHT22;10812;51.838;5.838;2023-02-01T07:41:08;6.10;99.90
21306;DHT22;10812;51.838;5.838;2023-02-01T07:43:36;6.10;99.90
21306;DHT22;10812;51.838;5.838;2023-02-01T07:46:05;6.10;99.90
21306;DHT22;10812;51.838;5.838;2023-02-01T07:48:33;6.10;99.90
21306;DHT22;10812;51.838;5.838;2023-02-01T07:51:03;6.00;99.90
21306;DHT22;10812;51.838;5.838;2023-02-01T07:53:33;6.10;99.90
21306;DHT22;10812;51.838;5.838;2023-02-01T07:56:04;6.20;99.90
21306;DHT22;10812;51.838;5.838;2023-02-01T07:58:36;6.20;99.90
21306;DHT22;10812;51.838;5.838;2023-02-01T08:01:04;6.20;99.90
21306;DHT22;10812;51.838;5.838;2023-02-01T08:03:48;6.20;99.90
21306;DHT22;10812;51.838;5.838;2023-02-01T08:06:17;6.10;99.90
21306;DHT22;10812;51.838;5.838;2023-02-01T08:08:46;6.20;99.90
21306;DHT22;10812;51.838;5.838;2023-02-01T08:11:16;6.10;99.90
21306;DHT22;10812;51.838;5.838;2023-02-01T08:13:44;6.10;99.90
21306;DHT22;10812;51.838;5.838;2023-02-01T08:16:14;6.20;99.90
21306;DHT22;10812;51.838;5.838;2023-02-01T08:18:42;6.20;99.90
21306;DHT22;10812;51.838;5.838;2023-02-01T08:21:13;6.20;99.90
21306;DHT22;10812;51.838;5.838;2023-02-01T08:23:41;6.10;99.90
21306;DHT22;10812;51.838;5.838;2023-02-01T08:26:12;6.10;99.90
21306;DHT22;10812;51.838;5.838;2023-02-01T08:28:44;6.10;99.90
21306;DHT22;10812;51.838;5.838;2023-02-01T08:31:14;6.10;99.90
21306;DHT22;10812;51.838;5.838;2023-02-01T08:33:47;6.00;99.90
21306;DHT22;10812;51.838;5.838;2023-02-01T08:36:15;6.10;99.90
21306;DHT22;10812;51.838;5.838;2023-02-01T08:38:44;6.00;99.90
21306;DHT22;10812;51.838;5.838;2023-02-01T08:41:13;6.00;99.90
21306;DHT22;10812;51.838;5.838;2023-02-01T08:43:44;6.00;99.90
21306;DHT22;10812;51.838;5.838;2023-02-01T08:46:12;6.00;99.90
21306;DHT22;10812;51.838;5.838;2023-02-01T08:48:40;6.10;99.90
21306;DHT22;10812;51.838;5.838;2023-02-01T08:51:12;6.20;99.90
21306;DHT22;10812;51.838;5.838;2023-02-01T08:53:40;6.20;99.90
21306;DHT22;10812;51.838;5.838;2023-02-01T08:56:10;6.30;99.90
21306;DHT22;10812;51.838;5.838;2023-02-01T08:58:38;6.40;99.90
21306;DHT22;10812;51.838;5.838;2023-02-01T09:01:10;6.70;99.90
21306;DHT22;10812;51.838;5.838;2023-02-01T09:03:39;6.80;99.90
21306;DHT22;10812;51.838;5.838;2023-02-01T09:06:11;7.10;99.90
21306;DHT22;10812;51.838;5.838;2023-02-01T09:08:40;7.30;99.90
21306;DHT22;10812;51.838;5.838;2023-02-01T09:11:12;7.50;99.90
21306;DHT22;10812;51.838;5.838;2023-02-01T09:13:40;7.90;99.90
21306;DHT22;10812;51.838;5.838;2023-02-01T09:16:11;8.20;99.90
21306;DHT22;10812;51.838;5.838;2023-02-01T09:18:40;8.80;99.90
21306;DHT22;10812;51.838;5.838;2023-02-01T09:21:27;9.10;99.90
21306;DHT22;10812;51.838;5.838;2023-02-01T09:23:56;8.70;99.90
21306;DHT22;10812;51.838;5.838;2023-02-01T09:26:24;8.50;99.90
21306;DHT22;10812;51.838;5.838;2023-02-01T09:28:59;8.20;99.90
21306;DHT22;10812;51.838;5.838;2023-02-01T09:31:29;7.90;99.90
21306;DHT22;10812;51.838;5.838;2023-02-01T09:33:57;7.80;99.90
21306;DHT22;10812;51.838;5.838;2023-02-01T09:36:26;7.80;99.90
21306;DHT22;10812;51.838;5.838;2023-02-01T09:38:57;7.70;99.90
21306;DHT22;10812;51.838;5.838;2023-02-01T09:44:32;7.80;99.90
21306;DHT22;10812;51.838;5.838;2023-02-01T09:47:14;7.80;99.90
21306;DHT22;10812;51.838;5.838;2023-02-01T09:49:48;7.90;99.90
21306;DHT22;10812;51.838;5.838;2023-02-01T09:52:24;8.00;99.90
21306;DHT22;10812;51.838;5.838;2023-02-01T09:54:55;8.10;99.90
21306;DHT22;10812;51.838;5.838;2023-02-01T09:57:37;8.40;99.90
21306;DHT22;10812;51.838;5.838;2023-02-01T10:00:14;8.50;99.90
21306;DHT22;10812;51.838;5.838;2023-02-01T10:02:46;8.60;99.90
21306;DHT22;10812;51.838;5.838;2023-02-01T10:05:18;8.50;99.90
21306;DHT22;10812;51.838;5.838;2023-02-01T10:08:00;8.30;99.90
21306;DHT22;10812;51.838;5.838;2023-02-01T10:10:31;8.30;99.90
21306;DHT22;10812;51.838;5.838;2023-02-01T10:16:08;8.50;99.90
21306;DHT22;10812;51.838;5.838;2023-02-01T10:18:57;8.50;99.90
21306;DHT22;10812;51.838;5.838;2023-02-01T10:21:40;8.20;99.90
21306;DHT22;10812;51.838;5.838;2023-02-01T10:24:17;8.10;99.90
21306;DHT22;10812;51.838;5.838;2023-02-01T10:26:53;8.00;99.90
21306;DHT22;10812;51.838;5.838;2023-02-01T10:29:27;8.00;99.90
21306;DHT22;10812;51.838;5.838;2023-02-01T10:31:56;7.90;99.90
21306;DHT22;10812;51.838;5.838;2023-02-01T10:34:28;7.80;99.90
21306;DHT22;10812;51.838;5.838;2023-02-01T10:37:00;7.80;99.90
21306;DHT22;10812;51.838;5.838;2023-02-01T10:39:29;7.80;99.90
21306;DHT22;10812;51.838;5.838;2023-02-01T10:41:57;7.80;99.90
21306;DHT22;10812;51.838;5.838;2023-02-01T10:44:27;7.80;99.90
21306;DHT22;10812;51.838;5.838;2023-02-01T10:50:34;7.70;99.90
21306;DHT22;10812;51.838;5.838;2023-02-01T10:53:05;7.60;99.90
21306;DHT22;10812;51.838;5.838;2023-02-01T10:55:39;7.50;99.90
21306;DHT22;10812;51.838;5.838;2023-02-01T10:58:15;7.40;99.90
21306;DHT22;10812;51.838;5.838;2023-02-01T11:00:46;7.40;99.90
21306;DHT22;10812;51.838;5.838;2023-02-01T11:03:36;7.30;99.90
21306;DHT22;10812;51.838;5.838;2023-02-01T11:06:14;7.20;99.90
21306;DHT22;10812;51.838;5.838;2023-02-01T11:08:47;7.10;99.90
21306;DHT22;10812;51.838;5.838;2023-02-01T11:11:17;7.10;99.90
21306;DHT22;10812;51.838;5.838;2023-02-01T11:13:53;7.10;99.90
21306;DHT22;10812;51.838;5.838;2023-02-01T11:16:21;7.10;99.90
21306;DHT22;10812;51.838;5.838;2023-02-01T11:18:55;7.10;99.90
21306;DHT22;10812;51.838;5.838;2023-02-01T11:21:27;7.10;99.90
21306;DHT22;10812;51.838;5.838;2023-02-01T11:23:55;7.10;99.90
21306;DHT22;10812;51.838;5.838;2023-02-01T11:26:28;7.20;99.90
21306;DHT22;10812;51.838;5.838;2023-02-01T11:29:00;7.20;99.90
21306;DHT22;10812;51.838;5.838;2023-02-01T11:31:29;7.30;99.90
21306;DHT22;10812;51.838;5.838;2023-02-01T11:34:05;7.30;99.90
21306;DHT22;10812;51.838;5.838;2023-02-01T11:36:36;7.30;99.90
21306;DHT22;10812;51.838;5.838;2023-02-01T11:39:17;7.30;99.90
21306;DHT22;10812;51.838;5.838;2023-02-01T11:41:57;7.30;99.90
21306;DHT22;10812;51.838;5.838;2023-02-01T11:44:31;7.30;99.90
21306;DHT22;10812;51.838;5.838;2023-02-01T11:47:26;7.40;99.90
21306;DHT22;10812;51.838;5.838;2023-02-01T11:49:57;7.40;99.90
21306;DHT22;10812;51.838;5.838;2023-02-01T11:52:46;7.30;99.90
21306;DHT22;10812;51.838;5.838;2023-02-01T11:55:34;7.30;99.90
21306;DHT22;10812;51.838;5.838;2023-02-01T11:58:16;7.30;99.90
21306;DHT22;10812;51.838;5.838;2023-02-01T12:00:57;7.20;99.90
21306;DHT22;10812;51.838;5.838;2023-02-01T12:06:35;7.00;99.90
21306;DHT22;10812;51.838;5.838;2023-02-01T12:09:34;7.10;99.90
21306;DHT22;10812;51.838;5.838;2023-02-01T12:12:14;7.00;99.90
21306;DHT22;10812;51.838;5.838;2023-02-01T12:17:50;7.00;99.90
21306;DHT22;10812;51.838;5.838;2023-02-01T12:20:29;7.00;99.90
21306;DHT22;10812;51.838;5.838;2023-02-01T12:23:12;7.00;99.90
21306;DHT22;10812;51.838;5.838;2023-02-01T12:25:57;7.10;99.90
21306;DHT22;10812;51.838;5.838;2023-02-01T12:28:53;7.20;99.90
21306;DHT22;10812;51.838;5.838;2023-02-01T12:34:34;7.40;99.90
21306;DHT22;10812;51.838;5.838;2023-02-01T12:37:12;7.50;99.90
21306;DHT22;10812;51.838;5.838;2023-02-01T12:39:49;7.50;99.90
21306;DHT22;10812;51.838;5.838;2023-02-01T12:42:24;7.40;99.90
21306;DHT22;10812;51.838;5.838;2023-02-01T12:44:56;7.40;99.90
21306;DHT22;10812;51.838;5.838;2023-02-01T12:47:29;7.50;99.90
21306;DHT22;10812;51.838;5.838;2023-02-01T12:50:02;7.50;99.90
21306;DHT22;10812;51.838;5.838;2023-02-01T12:52:36;7.50;99.90
21306;DHT22;10812;51.838;5.838;2023-02-01T12:55:10;7.60;99.90
21306;DHT22;10812;51.838;5.838;2023-02-01T12:57:47;7.60;99.90
21306;DHT22;10812;51.838;5.838;2023-02-01T13:00:23;7.60;99.90
21306;DHT22;10812;51.838;5.838;2023-02-01T13:02:59;7.60;99.90
21306;DHT22;10812;51.838;5.838;2023-02-01T13:05:31;7.70;99.90
21306;DHT22;10812;51.838;5.838;2023-02-01T13:08:04;7.70;99.90
21306;DHT22;10812;51.838;5.838;2023-02-01T13:10:36;7.70;99.90
21306;DHT22;10812;51.838;5.838;2023-02-01T13:13:14;7.80;99.90
21306;DHT22;10812;51.838;5.838;2023-02-01T13:15:48;7.80;99.90
21306;DHT22;10812;51.838;5.838;2023-02-01T13:18:19;7.80;99.90
21306;DHT22;10812;51.838;5.838;2023-02-01T13:20:53;7.70;99.90
21306;DHT22;10812;51.838;5.838;2023-02-01T13:23:27;7.80;99.90
21306;DHT22;10812;51.838;5.838;2023-02-01T13:25:55;7.80;99.90
21306;DHT22;10812;51.838;5.838;2023-02-01T13:28:27;7.70;99.90
21306;DHT22;10812;51.838;5.838;2023-02-01T13:34:27;7.90;99.90
21306;DHT22;10812;51.838;5.838;2023-02-01T13:37:05;8.00;99.90
21306;DHT22;10812;51.838;5.838;2023-02-01T13:39:51;8.00;99.90
21306;DHT22;10812;51.838;5.838;2023-02-01T13:42:23;8.10;99.90
21306;DHT22;10812;51.838;5.838;2023-02-01T13:44:57;8.00;99.90
21306;DHT22;10812;51.838;5.838;2023-02-01T13:47:29;8.10;99.90
21306;DHT22;10812;51.838;5.838;2023-02-01T13:50:00;8.00;99.90
21306;DHT22;10812;51.838;5.838;2023-02-01T13:52:37;8.10;99.90
21306;DHT22;10812;51.838;5.838;2023-02-01T13:55:27;8.00;99.90
21306;DHT22;10812;51.838;5.838;2023-02-01T13:58:11;8.00;99.90
21306;DHT22;10812;51.838;5.838;2023-02-01T14:00:43;8.00;99.90
21306;DHT22;10812;51.838;5.838;2023-02-01T14:03:14;8.00;99.90
21306;DHT22;10812;51.838;5.838;2023-02-01T14:06:16;8.10;99.90
21306;DHT22;10812;51.838;5.838;2023-02-01T14:09:05;8.10;99.90
21306;DHT22;10812;51.838;5.838;2023-02-01T14:11:41;8.10;99.90
21306;DHT22;10812;51.838;5.838;2023-02-01T14:14:43;8.10;99.90
21306;DHT22;10812;51.838;5.838;2023-02-01T14:17:33;8.10;99.90
21306;DHT22;10812;51.838;5.838;2023-02-01T14:23:28;8.20;99.90
21306;DHT22;10812;51.838;5.838;2023-02-01T14:26:10;8.10;99.90
21306;DHT22;10812;51.838;5.838;2023-02-01T14:28:44;8.10;99.90
21306;DHT22;10812;51.838;5.838;2023-02-01T14:31:17;8.20;99.90
21306;DHT22;10812;51.838;5.838;2023-02-01T14:33:55;8.20;99.90
21306;DHT22;10812;51.838;5.838;2023-02-01T14:36:25;8.20;99.90
21306;DHT22;10812;51.838;5.838;2023-02-01T14:38:55;8.20;99.90
21306;DHT22;10812;51.838;5.838;2023-02-01T14:41:31;8.10;99.90
21306;DHT22;10812;51.838;5.838;2023-02-01T14:44:24;8.10;99.90
21306;DHT22;10812;51.838;5.838;2023-02-01T14:52:50;8.10;99.90
21306;DHT22;10812;51.838;5.838;2023-02-01T14:55:24;8.00;99.90
21306;DHT22;10812;51.838;5.838;2023-02-01T14:57:55;8.10;99.90
21306;DHT22;10812;51.838;5.838;2023-02-01T15:00:29;8.10;99.90
21306;DHT22;10812;51.838;5.838;2023-02-01T15:03:32;8.10;99.90
21306;DHT22;10812;51.838;5.838;2023-02-01T15:06:02;8.10;99.90
21306;DHT22;10812;51.838;5.838;2023-02-01T15:08:37;8.10;99.90
21306;DHT22;10812;51.838;5.838;2023-02-01T15:11:13;8.10;99.90
21306;DHT22;10812;51.838;5.838;2023-02-01T15:13:48;8.10;99.90
21306;DHT22;10812;51.838;5.838;2023-02-01T15:16:22;8.00;99.90
21306;DHT22;10812;51.838;5.838;2023-02-01T15:19:04;8.00;99.90
21306;DHT22;10812;51.838;5.838;2023-02-01T15:21:44;8.00;99.90
21306;DHT22;10812;51.838;5.838;2023-02-01T15:24:14;8.00;99.90
21306;DHT22;10812;51.838;5.838;2023-02-01T15:26:46;8.00;99.90
21306;DHT22;10812;51.838;5.838;2023-02-01T15:29:15;8.00;99.90
21306;DHT22;10812;51.838;5.838;2023-02-01T15:31:47;7.90;99.90
21306;DHT22;10812;51.838;5.838;2023-02-01T15:34:17;7.80;99.90
21306;DHT22;10812;51.838;5.838;2023-02-01T15:36:46;7.70;99.90
21306;DHT22;10812;51.838;5.838;2023-02-01T15:39:28;7.70;99.90
21306;DHT22;10812;51.838;5.838;2023-02-01T15:42:01;7.70;99.90
21306;DHT22;10812;51.838;5.838;2023-02-01T15:44:33;7.70;99.90
21306;DHT22;10812;51.838;5.838;2023-02-01T15:47:15;7.70;99.90
21306;DHT22;10812;51.838;5.838;2023-02-01T15:49:46;7.80;99.90
21306;DHT22;10812;51.838;5.838;2023-02-01T15:52:22;7.70;99.90
21306;DHT22;10812;51.838;5.838;2023-02-01T15:54:54;7.80;99.90
21306;DHT22;10812;51.838;5.838;2023-02-01T15:57:26;7.80;99.90
21306;DHT22;10812;51.838;5.838;2023-02-01T16:00:00;7.80;99.90
21306;DHT22;10812;51.838;5.838;2023-02-01T16:02:37;7.80;99.90
21306;DHT22;10812;51.838;5.838;2023-02-01T16:05:29;7.80;99.90
21306;DHT22;10812;51.838;5.838;2023-02-01T16:08:01;7.80;99.90
21306;DHT22;10812;51.838;5.838;2023-02-01T16:10:31;7.80;99.90
21306;DHT22;10812;51.838;5.838;2023-02-01T16:12:59;7.80;99.90
21306;DHT22;10812;51.838;5.838;2023-02-01T16:15:27;7.80;99.90
21306;DHT22;10812;51.838;5.838;2023-02-01T16:17:57;7.80;99.90
21306;DHT22;10812;51.838;5.838;2023-02-01T16:20:26;7.80;99.90
21306;DHT22;10812;51.838;5.838;2023-02-01T16:22:54;7.70;99.90
21306;DHT22;10812;51.838;5.838;2023-02-01T16:25:22;7.80;99.90
21306;DHT22;10812;51.838;5.838;2023-02-01T16:27:51;7.80;99.90
21306;DHT22;10812;51.838;5.838;2023-02-01T16:30:19;7.80;99.90
21306;DHT22;10812;51.838;5.838;2023-02-01T16:32:52;7.80;99.90
21306;DHT22;10812;51.838;5.838;2023-02-01T16:35:25;7.90;99.90
21306;DHT22;10812;51.838;5.838;2023-02-01T16:37:54;7.90;99.90
21306;DHT22;10812;51.838;5.838;2023-02-01T16:40:22;7.90;99.90
21306;DHT22;10812;51.838;5.838;2023-02-01T16:42:53;7.90;99.90
21306;DHT22;10812;51.838;5.838;2023-02-01T16:45:21;7.90;99.90
21306;DHT22;10812;51.838;5.838;2023-02-01T16:47:52;7.90;99.90
21306;DHT22;10812;51.838;5.838;2023-02-01T16:50:24;7.90;99.90
21306;DHT22;10812;51.838;5.838;2023-02-01T16:52:53;7.90;99.90
21306;DHT22;10812;51.838;5.838;2023-02-01T16:55:21;7.90;99.90
21306;DHT22;10812;51.838;5.838;2023-02-01T16:57:50;7.80;99.90
21306;DHT22;10812;51.838;5.838;2023-02-01T17:00:19;7.90;99.90
21306;DHT22;10812;51.838;5.838;2023-02-01T17:02:52;7.90;99.90
21306;DHT22;10812;51.838;5.838;2023-02-01T17:05:20;7.90;99.90
21306;DHT22;10812;51.838;5.838;2023-02-01T17:07:51;7.90;99.90
21306;DHT22;10812;51.838;5.838;2023-02-01T17:10:23;7.90;99.90
21306;DHT22;10812;51.838;5.838;2023-02-01T17:13:00;7.80;99.90